sensor_id;sensor_type;location;lat;lon;timestamp;P1;durP1;ratioP1;P2;durP2;ratioP2
29478;SDS011;16437;41.836;23.480;2022-07-29T00:01:43;3.27;;;2.95;;
29478;SDS011;16437;41.836;23.480;2022-07-29T00:07:09;3.10;;;2.80;;
29478;SDS011;16437;41.836;23.480;2022-07-29T00:12:35;3.35;;;2.95;;
29478;SDS011;16437;41.836;23.480;2022-07-29T00:18:02;5.22;;;3.00;;
29478;SDS011;16437;41.836;23.480;2022-07-29T00:23:30;3.55;;;3.15;;
29478;SDS011;16437;41.836;23.480;2022-07-29T00:28:57;3.50;;;3.20;;
29478;SDS011;16437;41.836;23.480;2022-07-29T00:34:24;5.25;;;3.45;;
29478;SDS011;16437;41.836;23.480;2022-07-29T00:40:09;3.70;;;3.20;;
29478;SDS011;16437;41.836;23.480;2022-07-29T00:45:36;3.47;;;3.17;;
29478;SDS011;16437;41.836;23.480;2022-07-29T00:51:03;4.12;;;3.17;;
29478;SDS011;16437;41.836;23.480;2022-07-29T00:56:32;4.92;;;3.12;;
29478;SDS011;16437;41.836;23.480;2022-07-29T01:01:59;3.85;;;3.50;;
29478;SDS011;16437;41.836;23.480;2022-07-29T01:07:26;4.42;;;3.27;;
29478;SDS011;16437;41.836;23.480;2022-07-29T01:12:54;3.92;;;3.52;;
29478;SDS011;16437;41.836;23.480;2022-07-29T01:18:32;3.55;;;3.25;;
29478;SDS011;16437;41.836;23.480;2022-07-29T01:29:37;5.17;;;4.10;;
29478;SDS011;16437;41.836;23.480;2022-07-29T01:35:08;3.87;;;3.47;;
29478;SDS011;16437;41.836;23.480;2022-07-29T01:46:17;4.37;;;3.85;;
29478;SDS011;16437;41.836;23.480;2022-07-29T01:51:41;3.70;;;3.33;;
29478;SDS011;16437;41.836;23.480;2022-07-29T01:57:13;3.72;;;3.40;;
29478;SDS011;16437;41.836;23.480;2022-07-29T02:02:42;3.45;;;3.15;;
29478;SDS011;16437;41.836;23.480;2022-07-29T02:08:11;4.47;;;3.50;;
29478;SDS011;16437;41.836;23.480;2022-07-29T02:13:38;4.17;;;3.77;;
29478;SDS011;16437;41.836;23.480;2022-07-29T02:19:06;4.20;;;3.80;;
29478;SDS011;16437;41.836;23.480;2022-07-29T02:24:35;4.28;;;3.58;;
29478;SDS011;16437;41.836;23.480;2022-07-29T02:30:05;6.08;;;3.80;;
29478;SDS011;16437;41.836;23.480;2022-07-29T02:35:32;4.87;;;3.30;;
29478;SDS011;16437;41.836;23.480;2022-07-29T02:41:01;3.98;;;3.67;;
29478;SDS011;16437;41.836;23.480;2022-07-29T02:46:34;3.90;;;3.50;;
29478;SDS011;16437;41.836;23.480;2022-07-29T02:52:03;3.65;;;3.33;;
29478;SDS011;16437;41.836;23.480;2022-07-29T03:03:22;4.77;;;3.30;;
29478;SDS011;16437;41.836;23.480;2022-07-29T03:08:51;4.87;;;3.75;;
29478;SDS011;16437;41.836;23.480;2022-07-29T03:14:19;4.70;;;3.60;;
29478;SDS011;16437;41.836;23.480;2022-07-29T03:19:47;5.12;;;4.08;;
29478;SDS011;16437;41.836;23.480;2022-07-29T03:25:15;3.42;;;3.12;;
29478;SDS011;16437;41.836;23.480;2022-07-29T03:30:42;5.33;;;3.60;;
29478;SDS011;16437;41.836;23.480;2022-07-29T03:36:09;4.55;;;3.90;;
29478;SDS011;16437;41.836;23.480;2022-07-29T03:41:35;4.20;;;3.77;;
29478;SDS011;16437;41.836;23.480;2022-07-29T03:47:04;7.17;;;4.00;;
29478;SDS011;16437;41.836;23.480;2022-07-29T03:52:32;3.98;;;3.58;;
29478;SDS011;16437;41.836;23.480;2022-07-29T03:57:59;5.47;;;4.03;;
29478;SDS011;16437;41.836;23.480;2022-07-29T04:03:27;4.33;;;3.75;;
29478;SDS011;16437;41.836;23.480;2022-07-29T04:08:54;4.42;;;3.92;;
29478;SDS011;16437;41.836;23.480;2022-07-29T04:14:20;4.50;;;4.10;;
29478;SDS011;16437;41.836;23.480;2022-07-29T04:19:47;6.05;;;4.00;;
29478;SDS011;16437;41.836;23.480;2022-07-29T04:25:13;3.90;;;3.50;;
29478;SDS011;16437;41.836;23.480;2022-07-29T04:30:40;4.58;;;4.03;;
29478;SDS011;16437;41.836;23.480;2022-07-29T04:36:06;5.30;;;4.42;;
29478;SDS011;16437;41.836;23.480;2022-07-29T04:41:32;6.08;;;3.92;;
29478;SDS011;16437;41.836;23.480;2022-07-29T04:46:59;5.00;;;4.17;;
29478;SDS011;16437;41.836;23.480;2022-07-29T04:52:25;4.75;;;4.00;;
29478;SDS011;16437;41.836;23.480;2022-07-29T04:57:51;5.97;;;4.22;;
29478;SDS011;16437;41.836;23.480;2022-07-29T05:03:18;4.35;;;3.95;;
29478;SDS011;16437;41.836;23.480;2022-07-29T05:08:45;5.17;;;4.20;;
29478;SDS011;16437;41.836;23.480;2022-07-29T05:14:11;7.20;;;4.10;;
29478;SDS011;16437;41.836;23.480;2022-07-29T05:19:38;6.35;;;4.40;;
29478;SDS011;16437;41.836;23.480;2022-07-29T05:25:04;4.80;;;4.30;;
29478;SDS011;16437;41.836;23.480;2022-07-29T05:30:31;4.83;;;4.20;;
29478;SDS011;16437;41.836;23.480;2022-07-29T05:35:57;4.70;;;4.20;;
29478;SDS011;16437;41.836;23.480;2022-07-29T05:41:24;5.10;;;4.35;;
29478;SDS011;16437;41.836;23.480;2022-07-29T05:46:50;5.58;;;4.10;;
29478;SDS011;16437;41.836;23.480;2022-07-29T05:52:17;5.95;;;4.20;;
29478;SDS011;16437;41.836;23.480;2022-07-29T05:57:44;5.28;;;4.42;;
29478;SDS011;16437;41.836;23.480;2022-07-29T06:03:10;6.83;;;4.47;;
29478;SDS011;16437;41.836;23.480;2022-07-29T06:08:37;6.97;;;4.62;;
29478;SDS011;16437;41.836;23.480;2022-07-29T06:14:05;7.05;;;4.92;;
29478;SDS011;16437;41.836;23.480;2022-07-29T06:19:33;5.95;;;4.65;;
29478;SDS011;16437;41.836;23.480;2022-07-29T06:25:01;5.75;;;4.40;;
29478;SDS011;16437;41.836;23.480;2022-07-29T06:30:28;7.50;;;5.03;;
29478;SDS011;16437;41.836;23.480;2022-07-29T06:35:54;5.37;;;4.67;;
29478;SDS011;16437;41.836;23.480;2022-07-29T06:41:20;6.50;;;5.55;;
29478;SDS011;16437;41.836;23.480;2022-07-29T06:46:48;6.03;;;4.85;;
29478;SDS011;16437;41.836;23.480;2022-07-29T06:52:15;6.12;;;4.83;;
29478;SDS011;16437;41.836;23.480;2022-07-29T06:57:42;6.87;;;5.37;;
29478;SDS011;16437;41.836;23.480;2022-07-29T07:03:09;5.90;;;5.20;;
29478;SDS011;16437;41.836;23.480;2022-07-29T07:08:35;5.62;;;4.95;;
29478;SDS011;16437;41.836;23.480;2022-07-29T07:14:01;6.50;;;4.87;;
29478;SDS011;16437;41.836;23.480;2022-07-29T07:19:28;6.15;;;5.10;;
29478;SDS011;16437;41.836;23.480;2022-07-29T07:24:54;6.53;;;5.35;;
29478;SDS011;16437;41.836;23.480;2022-07-29T07:30:20;5.97;;;5.05;;
29478;SDS011;16437;41.836;23.480;2022-07-29T07:35:47;5.92;;;5.22;;
29478;SDS011;16437;41.836;23.480;2022-07-29T07:41:14;6.53;;;5.17;;
29478;SDS011;16437;41.836;23.480;2022-07-29T07:46:40;5.83;;;5.17;;
29478;SDS011;16437;41.836;23.480;2022-07-29T07:52:07;6.42;;;4.83;;
29478;SDS011;16437;41.836;23.480;2022-07-29T07:57:33;6.05;;;5.20;;
29478;SDS011;16437;41.836;23.480;2022-07-29T08:03:00;8.53;;;5.67;;
29478;SDS011;16437;41.836;23.480;2022-07-29T08:08:26;6.67;;;5.58;;
29478;SDS011;16437;41.836;23.480;2022-07-29T08:13:53;6.12;;;4.78;;
29478;SDS011;16437;41.836;23.480;2022-07-29T08:19:20;5.62;;;5.12;;
29478;SDS011;16437;41.836;23.480;2022-07-29T08:24:47;5.70;;;4.60;;
29478;SDS011;16437;41.836;23.480;2022-07-29T08:30:20;5.75;;;5.12;;
29478;SDS011;16437;41.836;23.480;2022-07-29T08:35:47;5.58;;;4.90;;
29478;SDS011;16437;41.836;23.480;2022-07-29T08:41:14;5.67;;;5.17;;
29478;SDS011;16437;41.836;23.480;2022-07-29T08:46:42;5.47;;;4.92;;
29478;SDS011;16437;41.836;23.480;2022-07-29T08:52:10;5.50;;;4.95;;
29478;SDS011;16437;41.836;23.480;2022-07-29T08:57:38;6.30;;;5.40;;
29478;SDS011;16437;41.836;23.480;2022-07-29T09:03:05;5.50;;;5.00;;
29478;SDS011;16437;41.836;23.480;2022-07-29T09:08:34;6.12;;;5.53;;
29478;SDS011;16437;41.836;23.480;2022-07-29T09:14:01;6.62;;;5.20;;
29478;SDS011;16437;41.836;23.480;2022-07-29T09:19:27;5.75;;;5.15;;
29478;SDS011;16437;41.836;23.480;2022-07-29T09:24:56;5.80;;;5.20;;
29478;SDS011;16437;41.836;23.480;2022-07-29T09:30:22;5.05;;;4.55;;
29478;SDS011;16437;41.836;23.480;2022-07-29T09:41:29;6.07;;;5.43;;
29478;SDS011;16437;41.836;23.480;2022-07-29T09:46:59;5.35;;;4.85;;
29478;SDS011;16437;41.836;23.480;2022-07-29T09:52:32;5.60;;;4.75;;
29478;SDS011;16437;41.836;23.480;2022-07-29T09:58:18;5.87;;;5.28;;
29478;SDS011;16437;41.836;23.480;2022-07-29T10:03:52;5.95;;;5.22;;
29478;SDS011;16437;41.836;23.480;2022-07-29T10:09:18;6.00;;;5.22;;
29478;SDS011;16437;41.836;23.480;2022-07-29T10:14:44;7.33;;;5.42;;
29478;SDS011;16437;41.836;23.480;2022-07-29T10:20:12;7.10;;;6.40;;
29478;SDS011;16437;41.836;23.480;2022-07-29T10:25:39;8.20;;;7.35;;
29478;SDS011;16437;41.836;23.480;2022-07-29T10:31:06;7.47;;;6.67;;
29478;SDS011;16437;41.836;23.480;2022-07-29T10:42:13;8.85;;;7.10;;
29478;SDS011;16437;41.836;23.480;2022-07-29T10:47:47;10.10;;;8.35;;
29478;SDS011;16437;41.836;23.480;2022-07-29T10:53:14;8.68;;;7.42;;
29478;SDS011;16437;41.836;23.480;2022-07-29T10:58:41;8.10;;;7.30;;
29478;SDS011;16437;41.836;23.480;2022-07-29T11:04:07;7.30;;;6.37;;
29478;SDS011;16437;41.836;23.480;2022-07-29T11:09:34;7.78;;;6.80;;
29478;SDS011;16437;41.836;23.480;2022-07-29T11:15:00;8.08;;;6.70;;
29478;SDS011;16437;41.836;23.480;2022-07-29T11:20:40;8.10;;;6.78;;
29478;SDS011;16437;41.836;23.480;2022-07-29T11:26:15;7.92;;;6.80;;
29478;SDS011;16437;41.836;23.480;2022-07-29T11:31:49;7.78;;;6.85;;
29478;SDS011;16437;41.836;23.480;2022-07-29T11:37:18;8.00;;;7.17;;
29478;SDS011;16437;41.836;23.480;2022-07-29T11:42:46;8.85;;;7.20;;
29478;SDS011;16437;41.836;23.480;2022-07-29T11:48:17;8.08;;;6.67;;
29478;SDS011;16437;41.836;23.480;2022-07-29T11:53:46;7.85;;;6.58;;
29478;SDS011;16437;41.836;23.480;2022-07-29T11:59:12;8.50;;;6.60;;
29478;SDS011;16437;41.836;23.480;2022-07-29T12:10:18;8.08;;;7.12;;
29478;SDS011;16437;41.836;23.480;2022-07-29T12:15:54;8.48;;;7.45;;
29478;SDS011;16437;41.836;23.480;2022-07-29T12:21:22;7.00;;;6.30;;
29478;SDS011;16437;41.836;23.480;2022-07-29T12:26:50;7.15;;;6.45;;
29478;SDS011;16437;41.836;23.480;2022-07-29T12:32:17;7.08;;;6.33;;
29478;SDS011;16437;41.836;23.480;2022-07-29T12:37:44;7.30;;;6.60;;
29478;SDS011;16437;41.836;23.480;2022-07-29T12:43:23;7.00;;;6.30;;
29478;SDS011;16437;41.836;23.480;2022-07-29T12:48:51;7.65;;;6.85;;
29478;SDS011;16437;41.836;23.480;2022-07-29T12:54:21;7.70;;;6.72;;
29478;SDS011;16437;41.836;23.480;2022-07-29T13:00:04;7.15;;;6.45;;
29478;SDS011;16437;41.836;23.480;2022-07-29T13:05:38;7.08;;;6.37;;
29478;SDS011;16437;41.836;23.480;2022-07-29T13:11:06;7.60;;;6.37;;
29478;SDS011;16437;41.836;23.480;2022-07-29T13:16:32;7.92;;;7.20;;
29478;SDS011;16437;41.836;23.480;2022-07-29T13:21:59;7.30;;;6.60;;
29478;SDS011;16437;41.836;23.480;2022-07-29T13:27:27;7.85;;;7.03;;
29478;SDS011;16437;41.836;23.480;2022-07-29T13:32:54;6.72;;;6.12;;
29478;SDS011;16437;41.836;23.480;2022-07-29T13:38:21;7.50;;;6.00;;
29478;SDS011;16437;41.836;23.480;2022-07-29T13:43:47;6.92;;;6.22;;
29478;SDS011;16437;41.836;23.480;2022-07-29T13:49:14;7.85;;;6.30;;
29478;SDS011;16437;41.836;23.480;2022-07-29T13:54:40;7.17;;;6.17;;
29478;SDS011;16437;41.836;23.480;2022-07-29T14:00:07;8.68;;;6.25;;
29478;SDS011;16437;41.836;23.480;2022-07-29T14:05:35;7.85;;;6.15;;
29478;SDS011;16437;41.836;23.480;2022-07-29T14:11:01;6.08;;;5.45;;
29478;SDS011;16437;41.836;23.480;2022-07-29T14:16:27;6.92;;;5.83;;
29478;SDS011;16437;41.836;23.480;2022-07-29T14:21:54;7.47;;;6.67;;
29478;SDS011;16437;41.836;23.480;2022-07-29T14:27:20;7.65;;;6.42;;
29478;SDS011;16437;41.836;23.480;2022-07-29T14:32:47;12.33;;;9.13;;
29478;SDS011;16437;41.836;23.480;2022-07-29T14:38:14;12.45;;;10.40;;
29478;SDS011;16437;41.836;23.480;2022-07-29T14:43:40;11.22;;;9.28;;
29478;SDS011;16437;41.836;23.480;2022-07-29T14:49:07;14.13;;;10.32;;
29478;SDS011;16437;41.836;23.480;2022-07-29T14:54:34;11.97;;;9.88;;
29478;SDS011;16437;41.836;23.480;2022-07-29T15:00:00;11.85;;;9.15;;
29478;SDS011;16437;41.836;23.480;2022-07-29T15:05:29;9.40;;;8.40;;
29478;SDS011;16437;41.836;23.480;2022-07-29T15:10:56;8.95;;;8.03;;
29478;SDS011;16437;41.836;23.480;2022-07-29T15:16:23;8.98;;;8.08;;
29478;SDS011;16437;41.836;23.480;2022-07-29T15:21:50;10.48;;;8.48;;
29478;SDS011;16437;41.836;23.480;2022-07-29T15:27:17;9.50;;;8.58;;
29478;SDS011;16437;41.836;23.480;2022-07-29T15:32:43;10.20;;;8.50;;
29478;SDS011;16437;41.836;23.480;2022-07-29T15:38:11;9.58;;;7.87;;
29478;SDS011;16437;41.836;23.480;2022-07-29T15:43:37;12.33;;;7.80;;
29478;SDS011;16437;41.836;23.480;2022-07-29T15:49:14;10.10;;;7.83;;
29478;SDS011;16437;41.836;23.480;2022-07-29T15:54:40;9.10;;;8.00;;
29478;SDS011;16437;41.836;23.480;2022-07-29T16:00:06;10.10;;;7.58;;
29478;SDS011;16437;41.836;23.480;2022-07-29T16:05:34;9.05;;;8.03;;
29478;SDS011;16437;41.836;23.480;2022-07-29T16:11:00;9.55;;;8.23;;
29478;SDS011;16437;41.836;23.480;2022-07-29T16:16:27;8.55;;;7.72;;
29478;SDS011;16437;41.836;23.480;2022-07-29T16:21:54;8.13;;;7.33;;
29478;SDS011;16437;41.836;23.480;2022-07-29T16:27:20;9.65;;;7.87;;
29478;SDS011;16437;41.836;23.480;2022-07-29T16:32:48;8.30;;;7.40;;
29478;SDS011;16437;41.836;23.480;2022-07-29T16:38:15;8.78;;;7.87;;
29478;SDS011;16437;41.836;23.480;2022-07-29T16:43:41;8.23;;;7.47;;
29478;SDS011;16437;41.836;23.480;2022-07-29T16:49:08;9.35;;;7.78;;
29478;SDS011;16437;41.836;23.480;2022-07-29T16:54:34;7.83;;;7.03;;
29478;SDS011;16437;41.836;23.480;2022-07-29T17:00:00;8.63;;;7.28;;
29478;SDS011;16437;41.836;23.480;2022-07-29T17:05:27;8.08;;;7.28;;
29478;SDS011;16437;41.836;23.480;2022-07-29T17:10:54;10.00;;;8.08;;
29478;SDS011;16437;41.836;23.480;2022-07-29T17:16:20;9.53;;;8.00;;
29478;SDS011;16437;41.836;23.480;2022-07-29T17:21:48;10.20;;;8.08;;
29478;SDS011;16437;41.836;23.480;2022-07-29T17:27:15;9.48;;;7.80;;
29478;SDS011;16437;41.836;23.480;2022-07-29T17:32:41;8.25;;;7.45;;
29478;SDS011;16437;41.836;23.480;2022-07-29T17:38:08;8.83;;;7.60;;
29478;SDS011;16437;41.836;23.480;2022-07-29T17:43:34;8.33;;;7.53;;
29478;SDS011;16437;41.836;23.480;2022-07-29T17:49:01;8.60;;;7.55;;
29478;SDS011;16437;41.836;23.480;2022-07-29T17:54:28;8.68;;;7.87;;
29478;SDS011;16437;41.836;23.480;2022-07-29T17:59:54;8.55;;;7.75;;
29478;SDS011;16437;41.836;23.480;2022-07-29T18:05:21;8.65;;;7.72;;
29478;SDS011;16437;41.836;23.480;2022-07-29T18:10:47;9.05;;;7.97;;
29478;SDS011;16437;41.836;23.480;2022-07-29T18:16:14;8.50;;;7.60;;
29478;SDS011;16437;41.836;23.480;2022-07-29T18:21:41;8.93;;;8.03;;
29478;SDS011;16437;41.836;23.480;2022-07-29T18:27:07;9.23;;;7.70;;
29478;SDS011;16437;41.836;23.480;2022-07-29T18:32:36;8.73;;;7.83;;
29478;SDS011;16437;41.836;23.480;2022-07-29T18:38:02;9.00;;;7.65;;
29478;SDS011;16437;41.836;23.480;2022-07-29T18:43:29;9.03;;;7.92;;
29478;SDS011;16437;41.836;23.480;2022-07-29T18:48:55;10.32;;;7.90;;
29478;SDS011;16437;41.836;23.480;2022-07-29T18:54:23;9.25;;;8.25;;
29478;SDS011;16437;41.836;23.480;2022-07-29T18:59:49;8.43;;;7.50;;
29478;SDS011;16437;41.836;23.480;2022-07-29T19:05:18;8.98;;;8.08;;
29478;SDS011;16437;41.836;23.480;2022-07-29T19:10:44;8.60;;;7.70;;
29478;SDS011;16437;41.836;23.480;2022-07-29T19:16:11;8.68;;;7.78;;
29478;SDS011;16437;41.836;23.480;2022-07-29T19:21:38;8.78;;;7.87;;
29478;SDS011;16437;41.836;23.480;2022-07-29T19:27:05;8.85;;;7.95;;
29478;SDS011;16437;41.836;23.480;2022-07-29T19:32:32;8.10;;;7.30;;
29478;SDS011;16437;41.836;23.480;2022-07-29T19:37:59;8.53;;;7.62;;
29478;SDS011;16437;41.836;23.480;2022-07-29T19:43:26;10.10;;;8.10;;
29478;SDS011;16437;41.836;23.480;2022-07-29T19:48:54;9.10;;;7.75;;
29478;SDS011;16437;41.836;23.480;2022-07-29T19:54:21;7.72;;;6.92;;
29478;SDS011;16437;41.836;23.480;2022-07-29T19:59:47;8.75;;;7.85;;
29478;SDS011;16437;41.836;23.480;2022-07-29T20:05:14;8.25;;;7.45;;
29478;SDS011;16437;41.836;23.480;2022-07-29T20:10:40;8.35;;;7.55;;
29478;SDS011;16437;41.836;23.480;2022-07-29T20:16:07;8.53;;;7.62;;
29478;SDS011;16437;41.836;23.480;2022-07-29T20:21:33;8.40;;;7.28;;
29478;SDS011;16437;41.836;23.480;2022-07-29T20:27:00;8.48;;;7.67;;
29478;SDS011;16437;41.836;23.480;2022-07-29T20:32:26;8.18;;;7.37;;
29478;SDS011;16437;41.836;23.480;2022-07-29T20:37:53;8.40;;;7.40;;
29478;SDS011;16437;41.836;23.480;2022-07-29T20:43:20;8.28;;;7.47;;
29478;SDS011;16437;41.836;23.480;2022-07-29T20:48:47;8.15;;;7.35;;
29478;SDS011;16437;41.836;23.480;2022-07-29T20:54:14;8.05;;;7.25;;
29478;SDS011;16437;41.836;23.480;2022-07-29T20:59:40;8.43;;;7.53;;
29478;SDS011;16437;41.836;23.480;2022-07-29T21:05:08;7.60;;;6.80;;
29478;SDS011;16437;41.836;23.480;2022-07-29T21:10:34;9.55;;;7.58;;
29478;SDS011;16437;41.836;23.480;2022-07-29T21:16:00;8.40;;;7.42;;
29478;SDS011;16437;41.836;23.480;2022-07-29T21:21:27;8.78;;;7.20;;
29478;SDS011;16437;41.836;23.480;2022-07-29T21:26:54;7.67;;;6.97;;
29478;SDS011;16437;41.836;23.480;2022-07-29T21:32:21;7.60;;;6.78;;
29478;SDS011;16437;41.836;23.480;2022-07-29T21:37:48;8.00;;;6.80;;
29478;SDS011;16437;41.836;23.480;2022-07-29T21:43:15;7.55;;;6.85;;
29478;SDS011;16437;41.836;23.480;2022-07-29T21:48:42;7.80;;;7.00;;
29478;SDS011;16437;41.836;23.480;2022-07-29T21:54:08;8.03;;;6.92;;
29478;SDS011;16437;41.836;23.480;2022-07-29T21:59:35;7.45;;;6.75;;
29478;SDS011;16437;41.836;23.480;2022-07-29T22:05:01;7.37;;;6.67;;
29478;SDS011;16437;41.836;23.480;2022-07-29T22:10:28;9.20;;;6.75;;
29478;SDS011;16437;41.836;23.480;2022-07-29T22:15:55;7.60;;;6.90;;
29478;SDS011;16437;41.836;23.480;2022-07-29T22:21:22;7.37;;;6.30;;
29478;SDS011;16437;41.836;23.480;2022-07-29T22:26:48;7.47;;;6.75;;
29478;SDS011;16437;41.836;23.480;2022-07-29T22:32:14;7.87;;;6.50;;
29478;SDS011;16437;41.836;23.480;2022-07-29T22:37:41;7.83;;;7.03;;
29478;SDS011;16437;41.836;23.480;2022-07-29T22:43:08;10.28;;;6.83;;
29478;SDS011;16437;41.836;23.480;2022-07-29T22:48:35;7.55;;;6.75;;
29478;SDS011;16437;41.836;23.480;2022-07-29T22:54:02;7.67;;;6.80;;
29478;SDS011;16437;41.836;23.480;2022-07-29T22:59:29;7.42;;;6.72;;
29478;SDS011;16437;41.836;23.480;2022-07-29T23:04:55;6.85;;;6.25;;
29478;SDS011;16437;41.836;23.480;2022-07-29T23:10:21;6.95;;;6.30;;
29478;SDS011;16437;41.836;23.480;2022-07-29T23:15:48;7.83;;;6.90;;
29478;SDS011;16437;41.836;23.480;2022-07-29T23:21:14;7.12;;;6.42;;
29478;SDS011;16437;41.836;23.480;2022-07-29T23:26:40;7.20;;;6.50;;
29478;SDS011;16437;41.836;23.480;2022-07-29T23:32:07;7.10;;;6.45;;
29478;SDS011;16437;41.836;23.480;2022-07-29T23:37:33;6.83;;;5.78;;
29478;SDS011;16437;41.836;23.480;2022-07-29T23:43:00;6.80;;;6.10;;
29478;SDS011;16437;41.836;23.480;2022-07-29T23:48:27;7.30;;;6.50;;
29478;SDS011;16437;41.836;23.480;2022-07-29T23:53:55;6.20;;;5.60;;
29478;SDS011;16437;41.836;23.480;2022-07-29T23:59:21;7.20;;;6.50;;
